createdAt,value
2022-10-20T00:00:08.820Z,19.7
2022-10-20T00:00:25.433Z,19.7
2022-10-20T00:00:41.250Z,19.7
2022-10-20T00:00:57.632Z,19.7
2022-10-20T00:01:12.969Z,19.69
2022-10-20T00:01:29.833Z,19.7
2022-10-20T00:01:45.442Z,19.7
2022-10-20T00:02:05.162Z,19.7
2022-10-20T00:02:17.227Z,19.7
2022-10-20T00:02:33.061Z,19.69
2022-10-20T00:02:49.711Z,19.69
2022-10-20T00:03:08.677Z,19.7
2022-10-20T00:03:21.557Z,19.7
2022-10-20T00:03:38.447Z,19.69
2022-10-20T00:03:53.844Z,19.69
2022-10-20T00:04:08.922Z,19.69
2022-10-20T00:04:27.693Z,19.69
2022-10-20T00:04:42.845Z,19.69
2022-10-20T00:04:57.059Z,19.7
2022-10-20T00:05:13.993Z,19.7
2022-10-20T00:05:28.593Z,19.7
2022-10-20T00:05:46.060Z,19.69
2022-10-20T00:06:01.639Z,19.69
2022-10-20T00:06:18.252Z,19.69
2022-10-20T00:06:33.193Z,19.69
2022-10-20T00:06:49.612Z,19.68
2022-10-20T00:07:06.207Z,19.68
2022-10-20T00:07:37.414Z,19.68
2022-10-20T00:07:52.671Z,19.68
2022-10-20T00:08:09.496Z,19.68
2022-10-20T00:08:24.734Z,19.68
2022-10-20T00:08:41.905Z,19.68
2022-10-20T00:08:56.935Z,19.68
2022-10-20T00:09:14.218Z,19.68
2022-10-20T00:09:29.610Z,19.68
2022-10-20T00:09:45.789Z,19.68
2022-10-20T00:10:02.586Z,19.68
2022-10-20T00:10:17.281Z,19.67
2022-10-20T00:10:33.567Z,19.67
2022-10-20T00:10:48.697Z,19.67
2022-10-20T00:11:05.857Z,19.67
2022-10-20T00:11:22.686Z,19.67
2022-10-20T00:11:38.845Z,19.66
2022-10-20T00:11:53.225Z,19.66
2022-10-20T00:12:09.649Z,19.66
2022-10-20T00:12:25.757Z,19.66
2022-10-20T00:12:41.954Z,19.66
2022-10-20T00:12:57.454Z,19.66
2022-10-20T00:13:14.666Z,19.66
2022-10-20T00:13:30.655Z,19.66
2022-10-20T00:13:44.840Z,19.66
2022-10-20T00:14:01.388Z,19.66
2022-10-20T00:14:18.909Z,19.66
2022-10-20T00:14:34.727Z,19.66
2022-10-20T00:14:50.687Z,19.66
2022-10-20T00:15:05.719Z,19.65
2022-10-20T00:15:24.208Z,19.65
2022-10-20T00:15:39.233Z,19.65
2022-10-20T00:15:54.391Z,19.65
2022-10-20T00:16:08.774Z,19.65
2022-10-20T00:16:28.408Z,19.64
2022-10-20T00:16:44.914Z,19.64
2022-10-20T00:16:57.702Z,19.64
2022-10-20T00:17:13.407Z,19.64
2022-10-20T00:17:31.671Z,19.64
2022-10-20T00:17:45.863Z,19.64
2022-10-20T00:18:04.464Z,19.64
2022-10-20T00:18:17.672Z,19.64
2022-10-20T00:18:33.067Z,19.64
2022-10-20T00:18:49.832Z,19.63
2022-10-20T00:19:06.061Z,19.63
2022-10-20T00:19:21.530Z,19.63
2022-10-20T00:19:36.908Z,19.63
2022-10-20T00:19:53.915Z,19.63
2022-10-20T00:20:09.502Z,19.63
2022-10-20T00:20:25.585Z,19.63
2022-10-20T00:20:41.619Z,19.62
2022-10-20T00:21:01.026Z,19.62
2022-10-20T00:21:13.097Z,19.62
2022-10-20T00:21:28.653Z,19.61
2022-10-20T00:21:46.507Z,19.61
2022-10-20T00:22:01.174Z,19.61
2022-10-20T00:22:17.998Z,19.61
2022-10-20T00:22:37.602Z,19.61
2022-10-20T00:22:50.259Z,19.61
2022-10-20T00:23:05.396Z,19.61
2022-10-20T00:23:22.504Z,19.61
2022-10-20T00:23:37.878Z,19.61
2022-10-20T00:23:52.890Z,19.6
2022-10-20T00:24:09.116Z,19.6
2022-10-20T00:24:25.955Z,19.6
2022-10-20T00:24:41.888Z,19.6
2022-10-20T00:24:57.395Z,19.59
2022-10-20T00:25:15.064Z,19.59
2022-10-20T00:25:29.043Z,19.59
2022-10-20T00:25:45.606Z,19.59
2022-10-20T00:26:02.571Z,19.59
2022-10-20T00:26:17.862Z,19.59
2022-10-20T00:26:33.505Z,19.59
2022-10-20T00:26:50.152Z,19.59
2022-10-20T00:27:05.891Z,19.59
2022-10-20T00:27:23.239Z,19.58
2022-10-20T00:27:37.888Z,19.58
2022-10-20T00:27:53.160Z,19.58
2022-10-20T00:28:10.200Z,19.57
2022-10-20T00:28:25.657Z,19.57
2022-10-20T00:28:41.706Z,19.57
2022-10-20T00:28:57.822Z,19.57
2022-10-20T00:29:15.517Z,19.57
2022-10-20T00:29:29.427Z,19.57
2022-10-20T00:29:45.930Z,19.57
2022-10-20T00:30:03.207Z,19.57
2022-10-20T00:30:21.454Z,19.57
2022-10-20T00:30:33.364Z,19.57
2022-10-20T00:30:50.259Z,19.56
2022-10-20T00:31:08.410Z,19.56
2022-10-20T00:31:22.402Z,19.55
2022-10-20T00:31:53.348Z,19.55
2022-10-20T00:32:09.281Z,19.55
2022-10-20T00:32:26.823Z,19.55
2022-10-20T00:32:40.874Z,19.55
2022-10-20T00:32:58.531Z,19.55
2022-10-20T00:33:13.323Z,19.55
2022-10-20T00:33:31.955Z,19.55
2022-10-20T00:34:04.192Z,19.54
2022-10-20T00:34:17.028Z,19.54
2022-10-20T00:34:36.201Z,19.54
2022-10-20T00:34:49.003Z,19.54
2022-10-20T00:35:04.740Z,19.54
2022-10-20T00:35:21.731Z,19.54
2022-10-20T00:35:38.244Z,19.54
2022-10-20T00:35:55.859Z,19.53
2022-10-20T00:36:08.833Z,19.53
2022-10-20T00:36:27.971Z,19.52
2022-10-20T00:36:40.936Z,19.53
2022-10-20T00:37:12.923Z,19.52
2022-10-20T00:37:28.622Z,19.52
2022-10-20T00:37:46.017Z,19.52
2022-10-20T00:38:00.973Z,19.52
2022-10-20T00:38:20.325Z,19.52
2022-10-20T00:38:35.154Z,19.51
2022-10-20T00:38:50.205Z,19.51
2022-10-20T00:39:04.875Z,19.51
2022-10-20T00:39:23.471Z,19.5
2022-10-20T00:39:38.157Z,19.5
2022-10-20T00:39:54.044Z,19.5
2022-10-20T00:40:12.130Z,19.5
2022-10-20T00:40:25.009Z,19.5
2022-10-20T00:40:41.753Z,19.5
2022-10-20T00:40:57.388Z,19.49
2022-10-20T00:41:14.626Z,19.49
2022-10-20T00:41:30.613Z,19.48
2022-10-20T00:41:46.278Z,19.48
2022-10-20T00:42:02.871Z,19.48
2022-10-20T00:42:17.640Z,19.48
2022-10-20T00:42:37.165Z,19.48
2022-10-20T00:42:51.665Z,19.48
2022-10-20T00:43:05.732Z,19.47
2022-10-20T00:43:20.921Z,19.47
2022-10-20T00:43:37.545Z,19.47
2022-10-20T00:43:55.418Z,19.46
2022-10-20T00:44:11.338Z,19.46
2022-10-20T00:44:24.814Z,19.46
2022-10-20T00:44:59.010Z,19.45
2022-10-20T00:45:13.994Z,19.45
2022-10-20T00:45:29.197Z,19.45
2022-10-20T00:45:44.329Z,19.45
2022-10-20T00:46:01.298Z,19.45
2022-10-20T00:46:16.975Z,19.44
2022-10-20T00:46:33.257Z,19.44
2022-10-20T00:46:49.100Z,19.43
2022-10-20T00:47:06.219Z,19.43
2022-10-20T00:47:20.961Z,19.43
2022-10-20T00:47:54.420Z,19.42
2022-10-20T00:48:08.597Z,19.42
2022-10-20T00:48:25.399Z,19.41
2022-10-20T00:48:41.123Z,19.41
2022-10-20T00:48:57.789Z,19.41
2022-10-20T00:49:16.381Z,19.41
2022-10-20T00:49:29.554Z,19.4
2022-10-20T00:49:47.326Z,19.39
2022-10-20T00:50:04.461Z,19.39
2022-10-20T00:50:17.924Z,19.39
2022-10-20T00:50:34.243Z,19.39
2022-10-20T00:50:50.559Z,19.39
2022-10-20T00:51:06.937Z,19.39
2022-10-20T00:51:21.536Z,19.39
2022-10-20T00:51:36.793Z,19.38
2022-10-20T00:51:55.816Z,19.38
2022-10-20T00:52:25.725Z,19.38
2022-10-20T00:52:41.386Z,19.37
2022-10-20T00:52:58.094Z,19.36
2022-10-20T00:53:13.673Z,19.36
2022-10-20T00:53:31.414Z,19.36
2022-10-20T00:53:45.813Z,19.36
2022-10-20T00:54:01.923Z,19.36
2022-10-20T00:54:17.615Z,19.36
2022-10-20T00:54:32.526Z,19.35
2022-10-20T00:54:49.688Z,19.34
2022-10-20T00:55:05.028Z,19.34
2022-10-20T00:55:21.908Z,19.34
2022-10-20T00:55:37.520Z,19.34
2022-10-20T00:55:53.859Z,19.34
2022-10-20T00:56:10.869Z,19.34
2022-10-20T00:56:24.365Z,19.34
2022-10-20T00:56:41.557Z,19.33
2022-10-20T00:57:17.587Z,19.32
2022-10-20T00:57:30.374Z,19.32
2022-10-20T00:57:45.311Z,19.32
2022-10-20T00:58:05.166Z,19.32
2022-10-20T00:58:20.397Z,19.32
2022-10-20T00:58:35.912Z,19.32
2022-10-20T00:58:50.284Z,19.31
2022-10-20T00:59:08.139Z,19.3
2022-10-20T00:59:22.543Z,19.3
2022-10-20T00:59:39.000Z,19.3
2022-10-20T00:59:52.809Z,19.3
2022-10-20T01:00:09.717Z,19.3
2022-10-20T01:00:26.488Z,19.3
2022-10-20T01:00:45.570Z,19.29
2022-10-20T01:01:13.601Z,19.29
2022-10-20T01:01:30.562Z,19.29
2022-10-20T01:01:44.607Z,19.28
2022-10-20T01:02:05.115Z,19.28
2022-10-20T01:02:19.384Z,19.27
2022-10-20T01:02:34.673Z,19.27
2022-10-20T01:02:48.658Z,19.27
2022-10-20T01:03:05.320Z,19.27
2022-10-20T01:03:20.677Z,19.27
2022-10-20T01:03:37.977Z,19.27
2022-10-20T01:03:55.884Z,19.26
2022-10-20T01:04:10.355Z,19.25
2022-10-20T01:04:25.726Z,19.25
2022-10-20T01:04:41.021Z,19.25
2022-10-20T01:05:00.118Z,19.25
2022-10-20T01:05:12.785Z,19.25
2022-10-20T01:05:30.637Z,19.24
2022-10-20T01:05:46.127Z,19.24
2022-10-20T01:06:01.522Z,19.23
2022-10-20T01:06:35.281Z,19.23
2022-10-20T01:06:49.704Z,19.23
2022-10-20T01:07:05.822Z,19.23
2022-10-20T01:07:21.578Z,19.23
2022-10-20T01:07:37.028Z,19.22
2022-10-20T01:07:54.917Z,19.21
2022-10-20T01:08:09.112Z,19.21
2022-10-20T01:08:28.661Z,19.21
2022-10-20T01:08:44.619Z,19.2
2022-10-20T01:09:00.457Z,19.2
2022-10-20T01:09:13.282Z,19.2
2022-10-20T01:09:30.113Z,19.2
2022-10-20T01:09:46.809Z,19.2
2022-10-20T01:10:00.789Z,19.2
2022-10-20T01:10:17.186Z,19.2
2022-10-20T01:10:35.025Z,19.2
2022-10-20T01:10:50.740Z,19.19
2022-10-20T01:11:04.851Z,19.19
2022-10-20T01:11:22.716Z,19.19
2022-10-20T01:11:37.027Z,19.18
2022-10-20T01:11:53.889Z,19.18
2022-10-20T01:12:09.050Z,19.18
2022-10-20T01:12:26.763Z,19.18
2022-10-20T01:12:41.283Z,19.18
2022-10-20T01:13:13.343Z,19.18
2022-10-20T01:13:29.913Z,19.17
2022-10-20T01:13:49.064Z,19.17
2022-10-20T01:14:02.768Z,19.16
2022-10-20T01:14:17.575Z,19.16
2022-10-20T01:14:33.275Z,19.16
2022-10-20T01:14:49.787Z,19.16
2022-10-20T01:15:04.736Z,19.16
2022-10-20T01:15:21.859Z,19.16
2022-10-20T01:15:54.242Z,19.15
2022-10-20T01:16:09.273Z,19.14
2022-10-20T01:16:26.571Z,19.15
2022-10-20T01:16:41.430Z,19.14
2022-10-20T01:16:57.135Z,19.14
2022-10-20T01:17:15.142Z,19.14
2022-10-20T01:17:30.499Z,19.14
2022-10-20T01:17:45.526Z,19.14
2022-10-20T01:18:01.551Z,19.14
2022-10-20T01:18:16.781Z,19.13
2022-10-20T01:18:34.882Z,19.13
2022-10-20T01:18:49.013Z,19.12
2022-10-20T01:19:05.741Z,19.12
2022-10-20T01:19:23.268Z,19.12
2022-10-20T01:19:38.006Z,19.11
2022-10-20T01:19:56.636Z,19.11
2022-10-20T01:20:10.279Z,19.11
2022-10-20T01:20:25.685Z,19.11
2022-10-20T01:20:40.172Z,19.11
2022-10-20T01:21:00.046Z,19.11
2022-10-20T01:21:12.318Z,19.1
2022-10-20T01:21:32.450Z,19.1
2022-10-20T01:21:44.413Z,19.09
2022-10-20T01:22:16.607Z,19.09
2022-10-20T01:22:34.848Z,19.09
2022-10-20T01:22:49.184Z,19.09
2022-10-20T01:23:05.758Z,19.08
2022-10-20T01:23:24.241Z,19.07
2022-10-20T01:23:38.803Z,19.07
2022-10-20T01:23:54.832Z,19.07
2022-10-20T01:24:09.204Z,19.07
2022-10-20T01:24:25.319Z,19.07
2022-10-20T01:24:40.892Z,19.07
2022-10-20T01:24:59.922Z,19.06
2022-10-20T01:25:13.099Z,19.06
2022-10-20T01:25:30.879Z,19.05
2022-10-20T01:25:45.120Z,19.05
2022-10-20T01:26:02.136Z,19.05
2022-10-20T01:26:16.994Z,19.05
2022-10-20T01:26:34.410Z,19.05
2022-10-20T01:26:51.063Z,19.04
2022-10-20T01:27:06.028Z,19.04
2022-10-20T01:27:21.265Z,19.04
2022-10-20T01:27:37.322Z,19.04
2022-10-20T01:27:53.339Z,19.03
2022-10-20T01:28:10.782Z,19.03
2022-10-20T01:28:25.556Z,19.02
2022-10-20T01:28:43.769Z,19.02
2022-10-20T01:28:57.145Z,19.02
2022-10-20T01:29:16.315Z,19.02
2022-10-20T01:29:28.375Z,19.02
2022-10-20T01:29:45.129Z,19.01
2022-10-20T01:30:01.132Z,19.01
2022-10-20T01:30:21.540Z,19
2022-10-20T01:30:35.282Z,19
2022-10-20T01:30:51.986Z,19
2022-10-20T01:31:05.997Z,19
2022-10-20T01:31:21.909Z,19
2022-10-20T01:31:38.168Z,18.99
2022-10-20T01:31:54.141Z,18.98
2022-10-20T01:32:10.505Z,18.98
2022-10-20T01:32:25.078Z,18.98
2022-10-20T01:32:41.582Z,18.98
2022-10-20T01:32:56.987Z,18.98
2022-10-20T01:33:13.953Z,18.98
2022-10-20T01:33:48.243Z,18.96
2022-10-20T01:34:00.667Z,18.96
2022-10-20T01:34:16.817Z,18.96
2022-10-20T01:34:33.729Z,18.96
2022-10-20T01:34:52.098Z,18.96
2022-10-20T01:35:07.075Z,18.95
2022-10-20T01:35:21.072Z,18.95
2022-10-20T01:35:37.864Z,18.95
2022-10-20T01:35:52.567Z,18.95
2022-10-20T01:36:10.617Z,18.94
2022-10-20T01:36:25.522Z,18.94
2022-10-20T01:36:41.854Z,18.94
2022-10-20T01:36:57.427Z,18.93
2022-10-20T01:37:19.721Z,18.93
2022-10-20T01:37:34.297Z,18.93
2022-10-20T01:37:49.409Z,18.93
2022-10-20T01:38:05.525Z,18.93
2022-10-20T01:38:19.094Z,18.92
2022-10-20T01:38:34.018Z,18.92
2022-10-20T01:38:49.882Z,18.93
2022-10-20T01:39:05.681Z,18.93
2022-10-20T01:39:21.458Z,18.92
2022-10-20T01:39:36.312Z,18.92
2022-10-20T01:39:55.840Z,18.92
2022-10-20T01:40:10.280Z,18.92
2022-10-20T01:40:25.005Z,18.91
2022-10-20T01:40:40.561Z,18.91
2022-10-20T01:40:57.536Z,18.91
2022-10-20T01:41:13.260Z,18.91
2022-10-20T01:41:29.903Z,18.91
2022-10-20T01:41:45.016Z,18.91
2022-10-20T01:42:03.420Z,18.91
2022-10-20T01:42:20.029Z,18.91
2022-10-20T01:42:32.632Z,18.91
2022-10-20T01:42:50.085Z,18.91
2022-10-20T01:43:04.347Z,18.91
2022-10-20T01:43:23.560Z,18.91
2022-10-20T01:43:54.550Z,18.91
2022-10-20T01:44:10.290Z,18.91
2022-10-20T01:44:25.740Z,18.91
2022-10-20T01:44:41.136Z,18.92
2022-10-20T01:44:58.589Z,18.92
2022-10-20T01:45:14.488Z,18.92
2022-10-20T01:45:28.205Z,18.92
2022-10-20T01:45:46.990Z,18.93
2022-10-20T01:46:00.764Z,18.93
2022-10-20T01:46:17.372Z,18.93
2022-10-20T01:46:33.349Z,18.93
2022-10-20T01:46:50.459Z,18.92
2022-10-20T01:47:05.157Z,18.92
2022-10-20T01:47:21.642Z,18.92
2022-10-20T01:47:38.478Z,18.92
2022-10-20T01:47:54.013Z,18.92
2022-10-20T01:48:09.087Z,18.92
2022-10-20T01:48:28.089Z,18.92
2022-10-20T01:48:41.457Z,18.91
2022-10-20T01:48:56.381Z,18.91
2022-10-20T01:49:17.542Z,18.91
2022-10-20T01:49:30.614Z,18.91
2022-10-20T01:49:47.872Z,18.91
2022-10-20T01:50:01.874Z,18.91
2022-10-20T01:50:18.002Z,18.91
2022-10-20T01:50:37.033Z,18.91
2022-10-20T01:51:05.351Z,18.91
2022-10-20T01:51:37.259Z,18.91
2022-10-20T01:51:53.878Z,18.91
2022-10-20T01:52:09.735Z,18.91
2022-10-20T01:52:25.485Z,18.91
2022-10-20T01:52:41.507Z,18.91
2022-10-20T01:53:01.692Z,18.91
2022-10-20T01:53:15.068Z,18.91
2022-10-20T01:53:30.670Z,18.91
2022-10-20T01:53:44.826Z,18.91
2022-10-20T01:54:20.122Z,18.9
2022-10-20T01:54:35.757Z,18.9
2022-10-20T01:54:48.524Z,18.89
2022-10-20T01:55:05.531Z,18.89
2022-10-20T01:55:21.100Z,18.89
2022-10-20T01:55:37.430Z,18.89
2022-10-20T01:55:54.031Z,18.89
2022-10-20T01:56:09.619Z,18.88
2022-10-20T01:56:25.170Z,18.88
2022-10-20T01:56:40.931Z,18.88
2022-10-20T01:57:16.559Z,18.88
2022-10-20T01:57:30.678Z,18.88
2022-10-20T01:57:46.225Z,18.88
2022-10-20T01:58:01.784Z,18.88
2022-10-20T01:58:17.316Z,18.87
2022-10-20T01:58:33.591Z,18.87
2022-10-20T01:58:48.737Z,18.87
2022-10-20T01:59:04.313Z,18.87
2022-10-20T01:59:21.232Z,18.86
2022-10-20T01:59:40.407Z,18.86
2022-10-20T01:59:53.148Z,18.86
2022-10-20T02:00:25.393Z,18.86
2022-10-20T02:00:42.569Z,18.86
2022-10-20T02:00:58.723Z,18.86
2022-10-20T02:01:14.411Z,18.86
2022-10-20T02:01:28.736Z,18.86
2022-10-20T02:02:02.408Z,18.85
2022-10-20T02:02:20.930Z,18.85
2022-10-20T02:02:35.648Z,18.85
2022-10-20T02:02:49.314Z,18.84
2022-10-20T02:03:06.430Z,18.84
2022-10-20T02:03:21.375Z,18.84
2022-10-20T02:03:39.917Z,18.84
2022-10-20T02:03:56.036Z,18.84
2022-10-20T02:04:10.619Z,18.84
2022-10-20T02:04:24.685Z,18.84
2022-10-20T02:04:45.517Z,18.84
2022-10-20T02:04:57.504Z,18.83
2022-10-20T02:05:12.991Z,18.83
2022-10-20T02:05:28.926Z,18.82
2022-10-20T02:05:45.096Z,18.82
2022-10-20T02:06:00.862Z,18.82
2022-10-20T02:06:20.625Z,18.82
2022-10-20T02:06:37.247Z,18.82
2022-10-20T02:06:51.380Z,18.82
2022-10-20T02:07:05.357Z,18.81
2022-10-20T02:07:20.244Z,18.8
2022-10-20T02:07:39.565Z,18.8
2022-10-20T02:07:56.104Z,18.8
2022-10-20T02:08:09.400Z,18.8
2022-10-20T02:08:42.817Z,18.8
2022-10-20T02:08:57.138Z,18.8
2022-10-20T02:09:13.946Z,18.79
2022-10-20T02:09:29.373Z,18.79
2022-10-20T02:09:44.565Z,18.79
2022-10-20T02:10:01.059Z,18.79
2022-10-20T02:10:18.406Z,18.79
2022-10-20T02:10:32.822Z,18.78
2022-10-20T02:10:49.161Z,18.77
2022-10-20T02:11:05.190Z,18.77
2022-10-20T02:11:21.956Z,18.77
2022-10-20T02:11:38.613Z,18.77
2022-10-20T02:11:53.017Z,18.77
2022-10-20T02:12:09.283Z,18.77
2022-10-20T02:12:24.983Z,18.77
2022-10-20T02:12:40.162Z,18.77
2022-10-20T02:13:01.445Z,18.77
2022-10-20T02:13:13.573Z,18.76
2022-10-20T02:13:45.234Z,18.76
2022-10-20T02:14:01.104Z,18.76
2022-10-20T02:14:17.223Z,18.75
2022-10-20T02:14:33.725Z,18.75
2022-10-20T02:14:49.006Z,18.75
2022-10-20T02:15:07.003Z,18.75
2022-10-20T02:15:21.182Z,18.75
2022-10-20T02:15:38.337Z,18.75
2022-10-20T02:15:56.202Z,18.75
2022-10-20T02:16:09.750Z,18.75
2022-10-20T02:16:25.753Z,18.75
2022-10-20T02:16:40.343Z,18.75
2022-10-20T02:16:58.849Z,18.75
2022-10-20T02:17:29.836Z,18.75
2022-10-20T02:17:44.835Z,18.75
2022-10-20T02:18:00.835Z,18.75
2022-10-20T02:18:17.365Z,18.75
2022-10-20T02:18:36.578Z,18.75
2022-10-20T02:18:50.612Z,18.74
2022-10-20T02:19:06.317Z,18.74
2022-10-20T02:19:21.964Z,18.74
2022-10-20T02:19:37.359Z,18.73
2022-10-20T02:19:54.822Z,18.73
2022-10-20T02:20:09.336Z,18.73
2022-10-20T02:20:24.844Z,18.73
2022-10-20T02:20:40.749Z,18.73
2022-10-20T02:20:57.007Z,18.73
2022-10-20T02:21:14.797Z,18.73
2022-10-20T02:21:28.662Z,18.72
2022-10-20T02:21:45.445Z,18.72
2022-10-20T02:22:00.380Z,18.72
2022-10-20T02:22:17.842Z,18.71
2022-10-20T02:22:33.665Z,18.71
2022-10-20T02:22:49.282Z,18.7
2022-10-20T02:23:04.818Z,18.7
2022-10-20T02:23:37.396Z,18.7
2022-10-20T02:23:53.082Z,18.7
2022-10-20T02:24:12.208Z,18.69
2022-10-20T02:24:24.495Z,18.68
2022-10-20T02:24:41.675Z,18.68
2022-10-20T02:24:57.037Z,18.68
2022-10-20T02:25:30.632Z,18.68
2022-10-20T02:25:44.641Z,18.67
2022-10-20T02:26:01.338Z,18.66
2022-10-20T02:26:17.772Z,18.66
2022-10-20T02:26:34.652Z,18.65
2022-10-20T02:26:48.812Z,18.64
2022-10-20T02:27:06.807Z,18.64
2022-10-20T02:27:22.347Z,18.64
2022-10-20T02:27:37.191Z,18.64
2022-10-20T02:27:53.355Z,18.63
2022-10-20T02:28:11.718Z,18.63
2022-10-20T02:28:25.259Z,18.63
2022-10-20T02:28:40.346Z,18.63
2022-10-20T02:28:57.167Z,18.62
2022-10-20T02:29:12.824Z,18.61
2022-10-20T02:29:29.351Z,18.61
2022-10-20T02:29:44.839Z,18.61
2022-10-20T02:30:16.278Z,18.61
2022-10-20T02:30:36.248Z,18.61
2022-10-20T02:30:50.636Z,18.61
2022-10-20T02:31:07.143Z,18.6
2022-10-20T02:31:21.101Z,18.6
2022-10-20T02:31:37.423Z,18.6
2022-10-20T02:31:52.733Z,18.59
2022-10-20T02:32:10.004Z,18.59
2022-10-20T02:32:28.105Z,18.59
2022-10-20T02:32:41.040Z,18.59
2022-10-20T02:32:57.722Z,18.59
2022-10-20T02:33:15.848Z,18.59
2022-10-20T02:33:29.957Z,18.59
2022-10-20T02:33:47.591Z,18.59
2022-10-20T02:34:01.893Z,18.59
2022-10-20T02:34:17.461Z,18.58
2022-10-20T02:34:31.987Z,18.58
2022-10-20T02:34:49.274Z,18.58
2022-10-20T02:35:06.861Z,18.57
2022-10-20T02:35:20.891Z,18.57
2022-10-20T02:35:37.030Z,18.57
2022-10-20T02:35:52.983Z,18.57
2022-10-20T02:36:08.611Z,18.57
2022-10-20T02:36:29.400Z,18.56
2022-10-20T02:36:43.238Z,18.56
2022-10-20T02:36:58.100Z,18.55
2022-10-20T02:37:12.988Z,18.55
2022-10-20T02:37:30.210Z,18.55
2022-10-20T02:37:45.421Z,18.55
2022-10-20T02:38:02.792Z,18.55
2022-10-20T02:38:19.479Z,18.54
2022-10-20T02:38:34.173Z,18.54
2022-10-20T02:38:49.878Z,18.54
2022-10-20T02:39:05.771Z,18.54
2022-10-20T02:39:23.207Z,18.53
2022-10-20T02:39:37.077Z,18.53
2022-10-20T02:39:54.223Z,18.52
2022-10-20T02:40:09.032Z,18.52
2022-10-20T02:40:24.963Z,18.52
2022-10-20T02:40:41.451Z,18.52
2022-10-20T02:40:58.864Z,18.52
2022-10-20T02:41:13.447Z,18.52
2022-10-20T02:41:29.283Z,18.52
2022-10-20T02:41:45.394Z,18.51
2022-10-20T02:42:03.209Z,18.5
2022-10-20T02:42:17.754Z,18.5
2022-10-20T02:42:33.023Z,18.5
2022-10-20T02:42:48.780Z,18.5
2022-10-20T02:43:04.940Z,18.5
2022-10-20T02:43:21.115Z,18.5
2022-10-20T02:43:36.850Z,18.49
2022-10-20T02:43:54.337Z,18.49
2022-10-20T02:44:09.268Z,18.49
2022-10-20T02:44:25.981Z,18.48
2022-10-20T02:44:40.324Z,18.48
2022-10-20T02:44:58.570Z,18.48
2022-10-20T02:45:12.234Z,18.48
2022-10-20T02:45:28.776Z,18.48
2022-10-20T02:45:44.789Z,18.48
2022-10-20T02:46:01.703Z,18.47
2022-10-20T02:46:33.868Z,18.47
2022-10-20T02:46:48.424Z,18.46
2022-10-20T02:47:05.051Z,18.46
2022-10-20T02:47:21.076Z,18.46
2022-10-20T02:47:54.233Z,18.46
2022-10-20T02:48:10.112Z,18.46
2022-10-20T02:48:25.227Z,18.46
2022-10-20T02:48:44.470Z,18.45
2022-10-20T02:48:59.023Z,18.45
2022-10-20T02:49:13.098Z,18.45
2022-10-20T02:50:01.636Z,18.45
2022-10-20T02:50:17.118Z,18.45
2022-10-20T02:50:35.981Z,18.45
2022-10-20T02:50:50.165Z,18.45
2022-10-20T02:51:05.508Z,18.45
2022-10-20T02:51:24.190Z,18.45
2022-10-20T02:51:36.871Z,18.45
2022-10-20T02:51:54.146Z,18.44
2022-10-20T02:52:08.745Z,18.45
2022-10-20T02:52:25.384Z,18.44
2022-10-20T02:52:44.769Z,18.43
2022-10-20T02:52:59.077Z,18.43
2022-10-20T02:53:28.478Z,18.43
2022-10-20T02:53:47.406Z,18.43
2022-10-20T02:54:00.584Z,18.43
2022-10-20T02:54:16.817Z,18.43
2022-10-20T02:54:32.548Z,18.43
2022-10-20T02:54:50.830Z,18.42
2022-10-20T02:55:04.674Z,18.42
2022-10-20T02:55:21.696Z,18.42
2022-10-20T02:55:38.344Z,18.41
2022-10-20T02:55:52.652Z,18.41
2022-10-20T02:56:08.658Z,18.41
2022-10-20T02:56:25.488Z,18.41
2022-10-20T02:56:40.903Z,18.41
2022-10-20T02:56:58.122Z,18.4
2022-10-20T02:57:13.653Z,18.4
2022-10-20T02:57:30.196Z,18.39
2022-10-20T02:57:45.204Z,18.39
2022-10-20T02:58:01.345Z,18.39
2022-10-20T02:58:18.395Z,18.39
2022-10-20T02:58:35.297Z,18.38
2022-10-20T02:58:48.390Z,18.38
2022-10-20T02:59:05.230Z,18.38
2022-10-20T02:59:20.467Z,18.37
2022-10-20T02:59:41.386Z,18.36
2022-10-20T02:59:56.033Z,18.36
2022-10-20T03:00:10.633Z,18.36
2022-10-20T03:00:25.007Z,18.36
2022-10-20T03:00:41.745Z,18.36
2022-10-20T03:01:00.601Z,18.34
2022-10-20T03:01:16.678Z,18.34
2022-10-20T03:01:29.255Z,18.34
2022-10-20T03:01:43.988Z,18.34
2022-10-20T03:02:00.938Z,18.34
2022-10-20T03:02:17.619Z,18.33
2022-10-20T03:02:32.901Z,18.32
2022-10-20T03:02:49.740Z,18.32
2022-10-20T03:03:20.434Z,18.32
2022-10-20T03:03:37.494Z,18.31
2022-10-20T03:03:54.180Z,18.3
2022-10-20T03:04:08.267Z,18.3
2022-10-20T03:04:40.240Z,18.3
2022-10-20T03:04:58.157Z,18.29
2022-10-20T03:05:15.186Z,18.29
2022-10-20T03:05:29.369Z,18.28
2022-10-20T03:05:45.022Z,18.28
2022-10-20T03:06:03.932Z,18.27
2022-10-20T03:06:17.859Z,18.27
2022-10-20T03:06:32.182Z,18.27
2022-10-20T03:06:53.134Z,18.27
2022-10-20T03:07:07.950Z,18.26
2022-10-20T03:07:21.457Z,18.26
2022-10-20T03:07:36.795Z,18.25
2022-10-20T03:07:53.397Z,18.25
2022-10-20T03:08:25.816Z,18.25
2022-10-20T03:08:41.832Z,18.24
2022-10-20T03:08:57.697Z,18.23
2022-10-20T03:09:15.845Z,18.23
2022-10-20T03:09:28.241Z,18.23
2022-10-20T03:09:45.210Z,18.23
2022-10-20T03:10:01.884Z,18.22
2022-10-20T03:10:19.350Z,18.21
2022-10-20T03:10:32.380Z,18.21
2022-10-20T03:10:49.072Z,18.21
2022-10-20T03:11:04.540Z,18.2
2022-10-20T03:11:21.541Z,18.2
2022-10-20T03:11:37.009Z,18.2
2022-10-20T03:11:52.023Z,18.2
2022-10-20T03:12:10.927Z,18.19
2022-10-20T03:12:26.788Z,18.18
2022-10-20T03:12:40.879Z,18.18
2022-10-20T03:12:57.626Z,18.18
2022-10-20T03:13:13.521Z,18.18
2022-10-20T03:13:45.291Z,18.17
2022-10-20T03:14:00.538Z,18.16
2022-10-20T03:14:19.495Z,18.16
2022-10-20T03:14:33.187Z,18.16
2022-10-20T03:15:04.787Z,18.15
2022-10-20T03:15:22.792Z,18.14
2022-10-20T03:15:37.086Z,18.14
2022-10-20T03:15:55.326Z,18.14
2022-10-20T03:16:13.443Z,18.14
2022-10-20T03:16:43.033Z,18.13
2022-10-20T03:16:57.751Z,18.13
2022-10-20T03:17:12.387Z,18.13
2022-10-20T03:17:29.354Z,18.12
2022-10-20T03:17:48.372Z,18.11
2022-10-20T03:18:01.287Z,18.11
2022-10-20T03:18:18.009Z,18.11
2022-10-20T03:18:34.711Z,18.11
2022-10-20T03:18:48.129Z,18.11
2022-10-20T03:19:09.172Z,18.1
2022-10-20T03:19:21.521Z,18.1
2022-10-20T03:19:38.706Z,18.09
2022-10-20T03:19:52.366Z,18.09
2022-10-20T03:20:09.023Z,18.09
2022-10-20T03:20:25.085Z,18.09
2022-10-20T03:20:41.782Z,18.08
2022-10-20T03:20:56.795Z,18.07
2022-10-20T03:21:12.071Z,18.07
2022-10-20T03:21:29.453Z,18.07
2022-10-20T03:21:44.827Z,18.07
2022-10-20T03:22:02.622Z,18.06
2022-10-20T03:22:16.886Z,18.05
2022-10-20T03:22:33.898Z,18.05
2022-10-20T03:22:52.404Z,18.05
2022-10-20T03:23:05.517Z,18.05
2022-10-20T03:23:21.113Z,18.05
2022-10-20T03:23:37.287Z,18.04
2022-10-20T03:24:08.625Z,18.04
2022-10-20T03:24:25.179Z,18.03
2022-10-20T03:24:40.282Z,18.03
2022-10-20T03:24:59.815Z,18.02
2022-10-20T03:25:16.188Z,18.02
2022-10-20T03:25:31.589Z,18.02
2022-10-20T03:25:44.551Z,18.02
2022-10-20T03:26:01.502Z,18.02
2022-10-20T03:26:16.706Z,18.01
2022-10-20T03:26:33.527Z,18
2022-10-20T03:26:50.415Z,18
2022-10-20T03:27:06.024Z,18
2022-10-20T03:27:20.801Z,18
2022-10-20T03:27:39.439Z,18
2022-10-20T03:27:55.065Z,17.99
2022-10-20T03:28:08.405Z,17.99
2022-10-20T03:28:26.395Z,17.98
2022-10-20T03:28:40.868Z,17.98
2022-10-20T03:28:57.900Z,17.98
2022-10-20T03:29:13.121Z,17.98
2022-10-20T03:29:30.182Z,17.98
2022-10-20T03:29:45.309Z,17.97
2022-10-20T03:30:01.095Z,17.96
2022-10-20T03:30:16.813Z,17.96
2022-10-20T03:30:32.310Z,17.96
2022-10-20T03:30:49.708Z,17.96
2022-10-20T03:31:05.140Z,17.95
2022-10-20T03:31:20.255Z,17.95
2022-10-20T03:31:37.158Z,17.95
2022-10-20T03:31:52.513Z,17.95
2022-10-20T03:32:09.178Z,17.95
2022-10-20T03:32:24.946Z,17.95
2022-10-20T03:32:40.799Z,17.94
2022-10-20T03:32:56.635Z,17.94
2022-10-20T03:33:13.467Z,17.93
2022-10-20T03:33:28.278Z,17.93
2022-10-20T03:33:45.013Z,17.93
2022-10-20T03:34:01.305Z,17.93
2022-10-20T03:34:16.056Z,17.93
2022-10-20T03:34:34.809Z,17.93
2022-10-20T03:34:48.480Z,17.93
2022-10-20T03:35:05.312Z,17.92
2022-10-20T03:35:20.823Z,17.92
2022-10-20T03:35:36.905Z,17.91
2022-10-20T03:35:52.303Z,17.91
2022-10-20T03:36:08.949Z,17.91
2022-10-20T03:36:24.587Z,17.91
2022-10-20T03:36:40.462Z,17.91
2022-10-20T03:36:56.749Z,17.91
2022-10-20T03:37:11.931Z,17.91